Flight Track Log - Related Links

Times and Time Zones

All times are in EDT time to prevent confusion due to time zone crossing. See the ASQ5750 flight status page for this flight to view local times or setup timezone preferences in your user account.

Time Position Orientation Groundspeed Altitude Reporting Facility
EDT Latitude Longitude Course Direction KTS MPH feet Rate Location/Type
Fri 03:47:06 PM 45.4833 -73.7000 254° West 160 184 1,300  Level Montreal Center
Fri 03:48:06 PM 45.5167 -73.6500 46° Northeast 210 242 4,200 2,700 Climbing Montreal Center
Fri 03:49:06 PM 45.5667 -73.7000 325° Northwest 280 322 6,700 2,900 Climbing Montreal Center
Fri 03:50:06 PM 45.5833 -73.8167 282° West 290 334 10,000 2,150 Climbing Montreal Center
Fri 03:51:06 PM 45.5667 -73.9333 259° West 350 403 11,000 1,700 Climbing Montreal Center
Fri 03:52:00 PM 45.4944 -74.5112 254° West  Level FlightAware Approximate
Fri 03:52:06 PM 45.5667 -74.0833 270° West 360 414 13,400  Level Montreal Center
Fri 03:53:06 PM 45.5333 -74.2167 250° West 360 414 15,700 2,100 Climbing Montreal Center
Fri 03:54:06 PM 45.5167 -74.3667 261° West 370 426 17,600 1,850 Climbing Montreal Center
Fri 03:55:06 PM 45.5000 -74.5167 261° West 370 426 19,400 2,100 Climbing Montreal Center
Fri 03:56:06 PM 45.4833 -74.6333 259° West 350 403 21,800 1,900 Climbing Montreal Center
Fri 03:57:06 PM 45.4500 -74.7667 250° West 350 403 23,200 1,400 Climbing Montreal Center
Fri 03:58:06 PM 45.4333 -74.9167 261° West 360 414 24,600 1,350 Climbing Montreal Center
Fri 03:59:06 PM 45.4167 -75.0667 261° West 370 426 25,900 1,100 Climbing Montreal Center
Fri 04:00:06 PM 45.4167 -75.2000 270° West 370 426 26,800 1,000 Climbing Montreal Center
Fri 04:01:06 PM 45.4000 -75.3667 262° West 380 437 27,900 1,000 Climbing Montreal Center
Fri 04:02:06 PM 45.4000 -75.5167 270° West 380 437 28,800 1,000 Climbing Montreal Center
Fri 04:03:06 PM 45.4000 -75.6833 270° West 390 449 29,900 600 Climbing Montreal Center
Fri 04:04:06 PM 45.4167 -75.8167 280° West 400 460 30,000 50 Climbing Montreal Center
Fri 04:05:06 PM 45.4000 -76.0000 263° West 410 472 30,000  Level Montreal Center
Fri 04:06:06 PM 45.4000 -76.1667 270° West 430 495 30,000  Level Montreal Center
Fri 04:07:06 PM 45.3667 -76.3500 256° West 440 506 30,000  Level Montreal Center
Fri 04:08:06 PM 45.3167 -76.5167 247° West 450 518 30,000  Level Montreal Center
Fri 04:09:06 PM 45.2833 -76.6833 254° West 460 529 30,000 650 Level Montreal Center
Fri 04:10:06 PM 45.2500 -76.8500 254° West 450 518 31,300 1,300 Climbing Montreal Center
Fri 04:11:06 PM 45.2000 -77.0167 247° West 430 495 32,600 1,100 Climbing Montreal Center
Fri 04:12:06 PM 45.1667 -77.1833 254° West 410 472 33,500 700 Climbing Montreal Center
Fri 04:13:06 PM 45.1333 -77.3167 251° West 400 460 34,000 400 Climbing Montreal Center
Fri 04:13:21 PM 45.1167 -77.3333 215° Southwest 400 460 34,000  Level Toronto Center
Fri 04:14:06 PM 45.1000 -77.4667 260° West 400 460 34,000  Level Montreal Center
Fri 04:15:06 PM 45.0667 -77.6333 254° West 420 483 34,000  Level Montreal Center
Fri 04:15:21 PM 45.0500 -77.6333 180° South 420 483 34,000  Level Toronto Center
Fri 04:16:21 PM 45.0167 -77.8000 254° West 430 495 34,000  Level Toronto Center
Fri 04:18:06 PM 44.9333 -78.1167 250° West 430 495 34,000  Level Montreal Center
Fri 04:19:21 PM 44.8833 -78.2833 247° West 440 506 34,000  Level Toronto Center
Fri 04:21:21 PM 44.8167 -78.6000 254° West 450 518 34,000  Level Toronto Center
Fri 04:22:06 PM 44.7667 -78.7667 247° West 440 506 34,000  Level Montreal Center
Fri 04:23:06 PM 44.7333 -78.9167 253° West 440 506 34,000  Level Montreal Center
Fri 04:23:21 PM 44.7167 -78.9333 215° Southwest 440 506 34,000  Level Toronto Center
Fri 04:24:21 PM 44.6500 -79.1000 241° Southwest 440 506 34,000  Level Toronto Center
Fri 04:25:21 PM 44.6000 -79.2333 242° Southwest 440 506 34,000  Level Toronto Center
Fri 04:26:21 PM 44.5500 -79.4000 247° West 440 506 34,000  Level Toronto Center
Fri 04:27:21 PM 44.4833 -79.5333 235° Southwest 440 506 34,000  Level Toronto Center
Fri 04:28:21 PM 44.4333 -79.7000 247° West 450 518 34,000  Level Toronto Center
Fri 04:29:21 PM 44.3667 -79.8500 238° Southwest 440 506 34,000  Level Toronto Center
Fri 04:30:21 PM 44.3167 -80.0000 245° Southwest 440 506 34,000  Level Toronto Center
Fri 04:31:21 PM 44.2667 -80.1667 247° West 440 506 34,000  Level Toronto Center
Fri 04:32:21 PM 44.2000 -80.3000 235° Southwest 440 506 34,000  Level Toronto Center
Fri 04:33:21 PM 44.1500 -80.4667 247° West 450 518 34,000  Level Toronto Center
Fri 04:34:21 PM 44.0833 -80.6000 235° Southwest 450 518 34,000  Level Toronto Center
Fri 04:35:21 PM 44.0333 -80.7667 247° West 450 518 34,000  Level Toronto Center
Fri 04:36:21 PM 43.9667 -80.9000 235° Southwest 450 518 34,000  Level Toronto Center
Fri 04:37:21 PM 43.9000 -81.0667 241° Southwest 450 518 34,000  Level Toronto Center
Fri 04:38:21 PM 43.8500 -81.2333 247° West 450 518 34,000  Level Toronto Center
Fri 04:39:21 PM 43.7833 -81.3667 235° Southwest 450 518 34,000  Level Toronto Center
Fri 04:40:21 PM 43.7333 -81.5333 248° West 450 518 34,000  Level Toronto Center
Fri 04:41:21 PM 43.6667 -81.6833 238° Southwest 450 518 34,000  Level Toronto Center
Fri 04:42:21 PM 43.6167 -81.8167 243° Southwest 450 518 34,000  Level Toronto Center
Fri 04:43:21 PM 43.5333 -81.9833 235° Southwest 450 518 34,000  Level Toronto Center
Fri 04:44:21 PM 43.4833 -82.1167 243° Southwest 450 518 34,000  Level Toronto Center
Fri 04:45:00 PM 43.4592 -82.2275 253° West 452 520 34,000  Level Cleveland Center
Fri 04:46:00 PM 43.3967 -82.3744 240° Southwest 452 520 34,000  Level Cleveland Center
Fri 04:46:21 PM 43.3667 -82.4000 212° Southwest 440 506 34,000 -519 Level Toronto Center
Fri 04:47:21 PM 43.3167 -82.5667 248° West 450 518 33,300 -606 Descending Toronto Center
Fri 04:48:00 PM 43.2728 -82.6731 240° Southwest 458 527 33,000 -606 Descending Cleveland Center
Fri 04:49:00 PM 43.2239 -82.8339 247° West 458 527 32,300 -500 Descending Cleveland Center
Fri 04:50:00 PM 43.1769 -83.0003 249° West 464 534 32,000 -150 Descending Cleveland Center
Fri 04:51:00 PM 43.1317 -83.1606 249° West 464 534 32,000  Level Cleveland Center
Fri 04:52:00 PM 43.0883 -83.3236 250° West 464 534 32,000  Level Cleveland Center
Fri 04:53:00 PM 43.0406 -83.4836 248° West 464 534 32,000  Level Cleveland Center
Fri 04:54:00 PM 42.9969 -83.6433 250° West 464 534 32,000  Level Cleveland Center
Fri 04:55:00 PM 42.9611 -83.8089 254° West 464 534 32,000  Level Cleveland Center
Fri 04:56:00 PM 42.9439 -83.9756 262° West 459 528 32,000  Level Cleveland Center
Fri 04:57:00 PM 42.9283 -84.1447 263° West 454 522 32,000  Level Cleveland Center
Fri 04:59:07 PM 42.8944 -84.4864 262° West 449 517 32,000  Level Chicago Center
Fri 05:00:10 PM 42.8769 -84.6553 262° West 452 520 32,000  Level Chicago Center
Fri 05:01:12 PM 42.8597 -84.8253 262° West 454 522 32,000  Level Chicago Center
Fri 05:02:14 PM 42.8378 -85.0297 262° West 455 524 32,000  Level Chicago Center
Fri 05:03:16 PM 42.8189 -85.2008 261° West 457 526 32,000  Level Chicago Center
Fri 05:04:18 PM 42.8003 -85.3719 262° West 458 527 32,000 -484 Level Chicago Center
Fri 05:05:20 PM 42.7789 -85.5456 261° West 460 529 31,000 -1,790 Descending Chicago Center
Fri 05:06:22 PM 42.7469 -85.7217 256° West 475 547 28,300 -2,516 Descending Chicago Center
Fri 05:08:26 PM 42.6853 -86.0528 256° West 449 517 23,200 -2,452 Descending Chicago Center
Fri 05:09:28 PM 42.6550 -86.2200 256° West 454 522 20,700 -1,548 Descending Chicago Center
Fri 05:10:30 PM 42.6203 -86.4036 256° West 416 479 20,000 -339 Descending Chicago Center
Fri 05:11:32 PM 42.5919 -86.5536 256° West 411 473 20,000 -288 Level Chicago Center
Fri 05:12:35 PM 42.5625 -86.7194 256° West 422 486 19,400 -1,344 Descending Chicago Center
Fri 05:13:37 PM 42.5244 -86.8642 250° West 413 475 17,200 -2,081 Descending Chicago Center
Fri 05:14:39 PM 42.4897 -86.9897 249° West 389 448 15,100 -2,081 Descending Chicago Center
Fri 05:15:41 PM 42.4522 -87.1231 249° West 380 437 12,900 -2,274 Descending Chicago Center
Fri 05:16:43 PM 42.4114 -87.2742 250° West 362 417 10,400 -1,403 Descending Chicago Center
Fri 05:17:45 PM 42.3811 -87.3842 250° West 320 368 10,000 -629 Descending Chicago Center
Fri 05:18:47 PM 42.3522 -87.4881 249° West 291 335 9,100 -871 Descending Chicago Center
Fri 05:19:49 PM 42.3119 -87.5606 233° Southwest 257 296 8,200 -919 Descending Chicago Center
Fri 05:20:51 PM 42.2667 -87.6106 219° Southwest 215 247 7,200 -581 Descending Chicago Center
Fri 05:21:53 PM 42.2231 -87.6378 205° Southwest 174 200 7,000 -66 Descending Chicago Center
Fri 05:23:54 PM 42.1167 -87.7000 203° Southwest 174 200 7,000  Level Chicago TRACON
Fri 05:24:54 PM 42.1000 -87.7333 236° Southwest 197 227 7,000  Level Chicago TRACON
Fri 05:25:54 PM 42.0833 -87.8167 255° West 207 238 7,000  Level Chicago TRACON
Fri 05:26:55 PM 42.0833 -87.9000 270° West 207 238 7,000  Level Chicago TRACON
Fri 05:28:01 PM 42.0833 -87.9833 270° West 208 239 7,000 50 Level Chicago TRACON
Fri 05:28:55 PM 42.0833 -88.0500 270° West 209 241 7,100 53 Climbing Chicago TRACON
Fri 05:29:55 PM 42.0667 -88.1333 255° West 210 242 7,100 -397 Level Chicago TRACON
Fri 05:31:11 PM 42.0639 -88.2183 268° West 210 242 6,200 -913 Descending Chicago Center
Fri 05:32:13 PM 42.0606 -88.2922 267° West 204 235 5,000 -581 Descending Chicago Center
Fri 05:33:15 PM 42.0650 -88.3683 275° West 204 235 5,000 -97 Level Chicago Center
Fri 05:34:17 PM 42.0692 -88.4636 273° West 211 243 4,800 -435 Descending Chicago Center
Fri 05:35:19 PM 42.0475 -88.5106 238° Southwest 184 212 4,100 -387 Descending Chicago Center
Fri 05:36:21 PM 42.0206 -88.4597 125° Southeast 176 203 4,000 -48 Descending Chicago Center
Fri 05:37:23 PM 42.0017 -88.4008 113° Southeast 174 200 4,000  Level Chicago Center
Fri 05:38:25 PM 41.9831 -88.3425 113° Southeast 172 198 4,000  Level Chicago Center
Fri 05:39:27 PM 41.9831 -88.2650 90° East 174 200 4,000  Level Chicago Center
Fri 05:40:29 PM 41.9842 -88.1983 89° East 179 206 4,000 -48 Level Chicago Center
Fri 05:41:31 PM 41.9844 -88.1308 90° East 180 207 3,900 -387 Descending Chicago Center
Fri 05:42:02 PM 41.9833 -88.1000 93° East 177 204 3,400 -928 Descending Chicago TRACON
Fri 05:43:08 PM 41.9833 -88.0167 90° East 148 170 2,400 -810 Descending Chicago TRACON
Fri 05:44:08 PM 41.9833 -87.9833 90° East 120 138 1,700 -684 Descending Chicago TRACON
Fri 05:45:02 PM 41.9833 -87.9333 90° East 128 147 1,100 -667 Descending Chicago TRACON

Login

Don't have an account? Register now (free) for customized features, flight alerts, and more!